createdAt,value
2023-05-18T00:02:27.102Z,102010.00
2023-05-18T00:04:55.331Z,102022.00
2023-05-18T00:07:23.358Z,102020.00
2023-05-18T00:09:52.780Z,101994.00
2023-05-18T00:12:20.837Z,102008.00
2023-05-18T00:14:48.825Z,101993.00
2023-05-18T00:17:17.151Z,102010.00
2023-05-18T00:19:46.622Z,102009.00
2023-05-18T00:22:18.114Z,101963.00
2023-05-18T00:24:46.736Z,102008.00
2023-05-18T00:27:16.075Z,102013.00
2023-05-18T00:29:44.020Z,102014.00
2023-05-18T00:32:11.868Z,102013.00
2023-05-18T00:34:39.825Z,102011.00
2023-05-18T00:37:07.724Z,102017.00
2023-05-18T00:39:35.769Z,102022.00
2023-05-18T00:42:03.864Z,102019.00
2023-05-18T00:44:33.160Z,102023.00
2023-05-18T00:47:02.249Z,102010.00
2023-05-18T00:49:30.453Z,102005.00
2023-05-18T00:51:58.753Z,101996.00
2023-05-18T00:54:27.317Z,102018.00
2023-05-18T00:56:55.371Z,102017.00
2023-05-18T00:59:23.306Z,102007.00
2023-05-18T01:01:52.870Z,102017.00
2023-05-18T01:04:21.763Z,102024.00
2023-05-18T01:06:50.095Z,102021.00
2023-05-18T01:09:18.087Z,102020.00
2023-05-18T01:11:57.077Z,102007.00
2023-05-18T01:14:32.382Z,102006.00
2023-05-18T01:17:11.919Z,102032.00
2023-05-18T01:20:07.159Z,102031.00
2023-05-18T01:22:50.630Z,102032.00
2023-05-18T01:25:25.405Z,102035.00
2023-05-18T01:27:56.231Z,102035.00
2023-05-18T01:30:24.890Z,102026.00
2023-05-18T01:32:52.847Z,102029.00
2023-05-18T01:35:20.786Z,102018.00
2023-05-18T01:37:48.744Z,102011.00
2023-05-18T01:40:16.776Z,102014.00
2023-05-18T01:42:47.465Z,102011.00
2023-05-18T01:45:22.694Z,102026.00
2023-05-18T01:47:54.482Z,102009.00
2023-05-18T01:50:30.871Z,102038.00
2023-05-18T01:53:04.254Z,102021.00
2023-05-18T01:55:33.253Z,102035.00
2023-05-18T01:58:02.075Z,102035.00
2023-05-18T02:00:31.788Z,102026.00
2023-05-18T02:02:59.767Z,102027.00
2023-05-18T02:05:27.800Z,102048.00
2023-05-18T02:07:55.968Z,102035.00
2023-05-18T02:10:23.951Z,102035.00
2023-05-18T02:12:52.874Z,102045.00
2023-05-18T02:15:20.847Z,102035.00
2023-05-18T02:17:51.313Z,102034.00
2023-05-18T02:20:19.564Z,102031.00
2023-05-18T02:22:47.481Z,102038.00
2023-05-18T02:25:15.443Z,102026.00
2023-05-18T02:27:43.401Z,102018.00
2023-05-18T02:30:14.446Z,102023.00
2023-05-18T02:32:47.250Z,102025.00
2023-05-18T02:35:18.138Z,102038.00
2023-05-18T02:37:47.394Z,102009.00
2023-05-18T02:40:16.089Z,102035.00
2023-05-18T02:42:44.213Z,102028.00
2023-05-18T02:45:12.557Z,102031.00
2023-05-18T02:47:40.577Z,102021.00
2023-05-18T02:50:09.520Z,102031.00
2023-05-18T02:52:38.853Z,102018.00
2023-05-18T02:55:07.490Z,102032.00
2023-05-18T02:57:36.146Z,102027.00
2023-05-18T03:00:10.016Z,102045.00
2023-05-18T03:02:38.904Z,102034.00
2023-05-18T03:05:07.921Z,102019.00
2023-05-18T03:07:35.891Z,102046.00
2023-05-18T03:10:07.769Z,102036.00
2023-05-18T03:12:35.733Z,102029.00
2023-05-18T03:15:03.986Z,102043.00
2023-05-18T03:17:31.882Z,102031.00
2023-05-18T03:19:59.697Z,102036.00
2023-05-18T03:22:27.682Z,102037.00
2023-05-18T03:24:55.614Z,102039.00
2023-05-18T03:27:26.793Z,102042.00
2023-05-18T03:29:54.781Z,102033.00
2023-05-18T03:32:22.936Z,102047.00
2023-05-18T03:34:51.161Z,102030.00
2023-05-18T03:37:19.112Z,102039.00
2023-05-18T03:39:47.075Z,102028.00
2023-05-18T03:42:14.972Z,102037.00
2023-05-18T03:44:44.393Z,102046.00
2023-05-18T03:47:12.737Z,102046.00
2023-05-18T03:49:40.679Z,102044.00
2023-05-18T03:52:09.011Z,102040.00
2023-05-18T03:54:36.912Z,102042.00
2023-05-18T03:57:05.052Z,102060.00
2023-05-18T03:59:32.933Z,102043.00
2023-05-18T04:02:02.438Z,102048.00
2023-05-18T04:04:31.102Z,102026.00
2023-05-18T04:07:02.001Z,102058.00
2023-05-18T04:09:30.210Z,102053.00
2023-05-18T04:11:58.205Z,102053.00
2023-05-18T04:14:28.213Z,102035.00
2023-05-18T04:16:56.810Z,102067.00
2023-05-18T04:19:26.223Z,102069.00
2023-05-18T04:21:54.532Z,102060.00
2023-05-18T04:24:22.714Z,102064.00
2023-05-18T04:26:50.560Z,102076.00
2023-05-18T04:29:18.507Z,102079.00
2023-05-18T04:31:48.922Z,102081.00
2023-05-18T04:34:17.913Z,102075.00
2023-05-18T04:36:47.564Z,102073.00
2023-05-18T04:39:15.522Z,102075.00
2023-05-18T04:41:43.523Z,102082.00
2023-05-18T04:44:14.050Z,102078.00
2023-05-18T04:46:42.008Z,102082.00
2023-05-18T04:49:10.307Z,102069.00
2023-05-18T04:51:42.341Z,102079.00
2023-05-18T04:54:13.058Z,102089.00
2023-05-18T04:56:41.066Z,102051.00
2023-05-18T04:59:09.668Z,102076.00
2023-05-18T05:01:37.831Z,102083.00
2023-05-18T05:04:06.430Z,102083.00
2023-05-18T05:06:34.420Z,102071.00
2023-05-18T05:09:02.399Z,102088.00
2023-05-18T05:11:31.824Z,102072.00
2023-05-18T05:13:59.852Z,102069.00
2023-05-18T05:16:28.069Z,102097.00
2023-05-18T05:18:56.125Z,102098.00
2023-05-18T05:21:24.212Z,102091.00
2023-05-18T05:23:52.266Z,102093.00
2023-05-18T05:26:21.431Z,102091.00
2023-05-18T05:28:51.264Z,102094.00
2023-05-18T05:31:19.202Z,102090.00
2023-05-18T05:33:47.128Z,102106.00
2023-05-18T05:36:15.070Z,102104.00
2023-05-18T05:38:42.965Z,102102.00
2023-05-18T05:41:10.839Z,102098.00
2023-05-18T05:43:38.821Z,102079.00
2023-05-18T05:46:08.321Z,102080.00
2023-05-18T05:48:36.237Z,102109.00
2023-05-18T05:51:04.059Z,102107.00
2023-05-18T05:53:32.042Z,102116.00
2023-05-18T05:56:00.049Z,102107.00
2023-05-18T05:58:28.222Z,102115.00
2023-05-18T06:00:56.224Z,102100.00
2023-05-18T06:03:25.685Z,102109.00
2023-05-18T06:05:53.966Z,102111.00
2023-05-18T06:08:24.373Z,102107.00
2023-05-18T06:10:52.372Z,102129.00
2023-05-18T06:13:20.225Z,102121.00
2023-05-18T06:15:48.115Z,102108.00
2023-05-18T06:18:16.054Z,102122.00
2023-05-18T06:20:45.379Z,102126.00
2023-05-18T06:23:13.389Z,102132.00
2023-05-18T06:25:41.324Z,102105.00
2023-05-18T06:28:09.217Z,102127.00
2023-05-18T06:30:37.256Z,102102.00
2023-05-18T06:33:05.426Z,102111.00
2023-05-18T06:35:33.421Z,102132.00
2023-05-18T06:38:03.273Z,102128.00
2023-05-18T06:40:31.290Z,102105.00
2023-05-18T06:42:59.257Z,102130.00
2023-05-18T06:45:27.245Z,102132.00
2023-05-18T06:47:55.390Z,102135.00
2023-05-18T06:50:23.348Z,102137.00
2023-05-18T06:52:51.460Z,102133.00
2023-05-18T06:55:20.708Z,102135.00
2023-05-18T06:57:48.518Z,102134.00
2023-05-18T07:00:17.091Z,102137.00
2023-05-18T07:02:45.839Z,102122.00
2023-05-18T07:05:15.188Z,102137.00
2023-05-18T07:07:43.097Z,102130.00
2023-05-18T07:10:11.576Z,102147.00
2023-05-18T07:12:42.764Z,102135.00
2023-05-18T07:15:11.622Z,102140.00
2023-05-18T07:17:39.602Z,102139.00
2023-05-18T07:20:08.758Z,102113.00
2023-05-18T07:22:36.641Z,102140.00
2023-05-18T07:25:04.958Z,102148.00
2023-05-18T07:27:33.266Z,102139.00
2023-05-18T07:30:02.729Z,102140.00
2023-05-18T07:32:31.752Z,102148.00
2023-05-18T07:35:00.561Z,102157.00
2023-05-18T07:37:28.402Z,102157.00
2023-05-18T07:39:56.276Z,102149.00
2023-05-18T07:42:24.292Z,102150.00
2023-05-18T07:44:52.243Z,102164.00
2023-05-18T07:47:22.244Z,102157.00
2023-05-18T07:49:50.564Z,102151.00
2023-05-18T07:52:18.496Z,102155.00
2023-05-18T07:54:46.612Z,102154.00
2023-05-18T07:57:15.222Z,102155.00
2023-05-18T07:59:43.063Z,102152.00
2023-05-18T08:02:11.314Z,102155.00
2023-05-18T08:04:40.774Z,102141.00
2023-05-18T08:07:08.975Z,102151.00
2023-05-18T08:09:36.854Z,102147.00
2023-05-18T08:12:05.085Z,102151.00
2023-05-18T08:14:33.217Z,102152.00
2023-05-18T08:17:01.052Z,102150.00
2023-05-18T08:19:29.036Z,102149.00
2023-05-18T08:21:59.228Z,102150.00
2023-05-18T08:24:27.052Z,102153.00
2023-05-18T08:26:54.869Z,102145.00
2023-05-18T08:29:22.854Z,102147.00
2023-05-18T08:31:50.799Z,102147.00
2023-05-18T08:34:18.693Z,102137.00
2023-05-18T08:36:46.613Z,102142.00
2023-05-18T08:39:15.885Z,102143.00
2023-05-18T08:41:56.917Z,102135.00
2023-05-18T08:44:31.804Z,102133.00
2023-05-18T08:47:00.264Z,102133.00
2023-05-18T08:49:28.590Z,102111.00
2023-05-18T08:51:57.591Z,102126.00
2023-05-18T08:54:27.768Z,102117.00
2023-05-18T08:56:55.680Z,102117.00
2023-05-18T08:59:26.613Z,102118.00
2023-05-18T09:01:55.421Z,102114.00
2023-05-18T09:04:23.553Z,102122.00
2023-05-18T09:06:55.246Z,102125.00
2023-05-18T09:09:23.572Z,102136.00
2023-05-18T09:11:53.562Z,102120.00
2023-05-18T09:14:25.722Z,102129.00
2023-05-18T09:16:53.976Z,102130.00
2023-05-18T09:19:22.280Z,102126.00
2023-05-18T09:21:50.323Z,102116.00
2023-05-18T09:24:19.335Z,102113.00
2023-05-18T09:26:47.440Z,102114.00
2023-05-18T09:29:20.839Z,102114.00
2023-05-18T09:31:49.663Z,102110.00
2023-05-18T09:34:19.025Z,102109.00
2023-05-18T09:36:49.505Z,102105.00
2023-05-18T09:39:17.411Z,102089.00
2023-05-18T09:41:45.465Z,102102.00
2023-05-18T09:44:13.529Z,102098.00
2023-05-18T09:46:43.242Z,102105.00
2023-05-18T09:49:11.686Z,102090.00
2023-05-18T09:51:40.681Z,102110.00
2023-05-18T09:54:10.422Z,102107.00
2023-05-18T09:56:39.436Z,102104.00
2023-05-18T09:59:11.531Z,102100.00
2023-05-18T10:01:55.911Z,102098.00
2023-05-18T10:04:35.836Z,102103.00
2023-05-18T10:07:03.799Z,102100.00
2023-05-18T10:09:31.733Z,102096.00
2023-05-18T10:11:59.615Z,102104.00
2023-05-18T10:14:31.438Z,102101.00
2023-05-18T10:17:14.373Z,102095.00
2023-05-18T10:19:47.230Z,102081.00
2023-05-18T10:22:17.490Z,102086.00
2023-05-18T10:24:49.434Z,102094.00
2023-05-18T10:27:20.848Z,102099.00
2023-05-18T10:29:50.783Z,102098.00
2023-05-18T10:32:20.782Z,102097.00
2023-05-18T10:34:51.598Z,102093.00
2023-05-18T10:37:23.352Z,102091.00
2023-05-18T10:39:53.231Z,102082.00
2023-05-18T10:42:22.100Z,102096.00
2023-05-18T10:44:53.732Z,102085.00
2023-05-18T10:47:21.845Z,102085.00
2023-05-18T10:49:51.472Z,102087.00
2023-05-18T10:52:19.551Z,102084.00
2023-05-18T10:54:47.722Z,102091.00
2023-05-18T10:57:18.770Z,102080.00
2023-05-18T10:59:48.853Z,102070.00
2023-05-18T11:02:19.576Z,102067.00
2023-05-18T11:04:48.641Z,102067.00
2023-05-18T11:07:17.934Z,102066.00
2023-05-18T11:09:46.273Z,102064.00
2023-05-18T11:12:14.930Z,102058.00
2023-05-18T11:14:49.950Z,102056.00
2023-05-18T11:17:22.503Z,102048.00
2023-05-18T11:20:13.120Z,102052.00
2023-05-18T11:22:50.050Z,102048.00
2023-05-18T11:25:46.557Z,102063.00
2023-05-18T11:28:15.044Z,102064.00
2023-05-18T11:30:48.504Z,102051.00
2023-05-18T11:33:19.324Z,102262.00
2023-05-18T11:36:01.478Z,102046.00
2023-05-18T11:38:53.941Z,102040.00
2023-05-18T11:41:32.933Z,102051.00
2023-05-18T11:44:16.081Z,102049.00
2023-05-18T11:46:54.751Z,102045.00
2023-05-18T11:49:25.054Z,102056.00
2023-05-18T11:51:58.891Z,102054.00
2023-05-18T11:54:28.737Z,102056.00
2023-05-18T11:56:56.972Z,102045.00
2023-05-18T11:59:32.810Z,102031.00
2023-05-18T12:02:03.645Z,102042.00
2023-05-18T12:04:33.631Z,102037.00
2023-05-18T12:07:07.218Z,102048.00
2023-05-18T12:09:37.011Z,102043.00
2023-05-18T12:12:05.169Z,102037.00
2023-05-18T12:14:36.037Z,102033.00
2023-05-18T12:17:04.104Z,102034.00
2023-05-18T12:19:38.400Z,102035.00
2023-05-18T12:22:12.919Z,102035.00
2023-05-18T12:24:43.800Z,102035.00
2023-05-18T12:27:13.189Z,102035.00
2023-05-18T12:29:42.743Z,102037.00
2023-05-18T12:32:12.390Z,102022.00
2023-05-18T12:34:40.815Z,102031.00
2023-05-18T12:37:08.932Z,102030.00
2023-05-18T12:39:37.676Z,102026.00
2023-05-18T12:42:15.453Z,102024.00
2023-05-18T12:44:44.840Z,102017.00
2023-05-18T12:47:13.253Z,102030.00
2023-05-18T12:49:42.465Z,102027.00
2023-05-18T12:52:12.418Z,102014.00
2023-05-18T12:54:55.232Z,102002.00
2023-05-18T12:57:27.744Z,102014.00
2023-05-18T12:59:55.611Z,102001.00
2023-05-18T13:02:41.335Z,102016.00
2023-05-18T13:05:10.850Z,102010.00
2023-05-18T13:07:41.084Z,102020.00
2023-05-18T13:10:10.580Z,102000.00
2023-05-18T13:12:44.871Z,102014.00
2023-05-18T13:15:14.578Z,102012.00
2023-05-18T13:17:59.496Z,101993.00
2023-05-18T13:20:36.688Z,102001.00
2023-05-18T13:23:06.162Z,101995.00
2023-05-18T13:25:34.370Z,101997.00
2023-05-18T13:28:03.812Z,101995.00
2023-05-18T13:30:32.050Z,101991.00
2023-05-18T13:33:00.635Z,101997.00
2023-05-18T13:35:28.783Z,101990.00
2023-05-18T13:37:56.900Z,101996.00
2023-05-18T13:40:25.917Z,101990.00
2023-05-18T13:42:54.308Z,101988.00
2023-05-18T13:45:23.985Z,101986.00
2023-05-18T13:47:53.517Z,101981.00
2023-05-18T13:50:22.971Z,101962.00
2023-05-18T13:52:51.028Z,101973.00
2023-05-18T13:55:19.122Z,101974.00
2023-05-18T13:57:47.329Z,101967.00
2023-05-18T14:00:17.132Z,101966.00
2023-05-18T14:02:46.785Z,101962.00
2023-05-18T14:05:15.368Z,101964.00
2023-05-18T14:07:44.043Z,101974.00
2023-05-18T14:10:14.273Z,101970.00
2023-05-18T14:12:43.287Z,101966.00
2023-05-18T14:15:13.676Z,101975.00
2023-05-18T14:17:42.400Z,101963.00
2023-05-18T14:20:12.863Z,101962.00
2023-05-18T14:22:41.072Z,101957.00
2023-05-18T14:25:09.795Z,101960.00
2023-05-18T14:27:37.732Z,101941.00
2023-05-18T14:30:07.187Z,101942.00
2023-05-18T14:32:35.171Z,101943.00
2023-05-18T14:35:03.790Z,101928.00
2023-05-18T14:37:33.941Z,101935.00
2023-05-18T14:40:01.789Z,101943.00
2023-05-18T14:42:29.605Z,101931.00
2023-05-18T14:44:57.449Z,101937.00
2023-05-18T14:47:25.689Z,101936.00
2023-05-18T14:49:53.644Z,101933.00
2023-05-18T14:52:21.481Z,101931.00
2023-05-18T14:54:50.865Z,101929.00
2023-05-18T14:57:19.345Z,101947.00
2023-05-18T14:59:47.176Z,101938.00
2023-05-18T15:02:15.095Z,101927.00
2023-05-18T15:04:43.032Z,101928.00
2023-05-18T15:07:10.919Z,101926.00
2023-05-18T15:09:38.874Z,101927.00
2023-05-18T15:12:08.500Z,101927.00
2023-05-18T15:14:37.960Z,101924.00
2023-05-18T15:17:07.352Z,101923.00
2023-05-18T15:19:35.285Z,101924.00
2023-05-18T15:22:03.107Z,101933.00
2023-05-18T15:24:30.980Z,101931.00
2023-05-18T15:26:58.909Z,101918.00
2023-05-18T15:29:29.261Z,101931.00
2023-05-18T15:31:57.220Z,101927.00
2023-05-18T15:34:25.167Z,101922.00
2023-05-18T15:36:53.460Z,101910.00
2023-05-18T15:39:21.315Z,101919.00
2023-05-18T15:41:49.559Z,101918.00
2023-05-18T15:44:17.456Z,101919.00
2023-05-18T15:46:46.682Z,101916.00
2023-05-18T15:49:14.533Z,101911.00
2023-05-18T15:51:42.533Z,101915.00
2023-05-18T15:54:10.533Z,101916.00
2023-05-18T15:56:38.454Z,101902.00
2023-05-18T15:59:08.260Z,101902.00
2023-05-18T16:01:36.202Z,101909.00
2023-05-18T16:04:05.577Z,101907.00
2023-05-18T16:06:34.447Z,101908.00
2023-05-18T16:09:02.431Z,101906.00
2023-05-18T16:11:30.494Z,101901.00
2023-05-18T16:14:00.336Z,101885.00
2023-05-18T16:16:28.219Z,101906.00
2023-05-18T16:18:56.201Z,101876.00
2023-05-18T16:21:25.644Z,101904.00
2023-05-18T16:23:53.691Z,101905.00
2023-05-18T16:26:22.055Z,101900.00
2023-05-18T16:28:50.183Z,101893.00
2023-05-18T16:31:18.358Z,101901.00
2023-05-18T16:33:46.244Z,101904.00
2023-05-18T16:36:14.094Z,101893.00
2023-05-18T16:38:47.512Z,101902.00
2023-05-18T16:41:16.942Z,101900.00
2023-05-18T16:43:44.819Z,101904.00
2023-05-18T16:46:13.279Z,101903.00
2023-05-18T16:48:41.474Z,101890.00
2023-05-18T16:51:09.722Z,101902.00
2023-05-18T16:53:38.112Z,101893.00
2023-05-18T16:56:07.658Z,101893.00
2023-05-18T16:58:36.272Z,101882.00
2023-05-18T17:01:09.823Z,101877.00
2023-05-18T17:03:44.038Z,101897.00
2023-05-18T17:06:12.301Z,101895.00
2023-05-18T17:08:40.102Z,101904.00
2023-05-18T17:11:09.304Z,101891.00
2023-05-18T17:13:37.176Z,101889.00
2023-05-18T17:16:06.581Z,101896.00
2023-05-18T17:18:34.466Z,101877.00
2023-05-18T17:24:23.197Z,101881.00
2023-05-18T17:27:19.117Z,101901.00
2023-05-18T17:30:24.347Z,101890.00
2023-05-18T17:33:00.651Z,101871.00
2023-05-18T17:35:28.743Z,101895.00
2023-05-18T17:37:56.972Z,101890.00
2023-05-18T17:40:25.031Z,101883.00
2023-05-18T17:42:54.408Z,101904.00
2023-05-18T17:45:22.324Z,101891.00
2023-05-18T17:47:51.110Z,101895.00
2023-05-18T17:50:19.112Z,101899.00
2023-05-18T17:56:17.658Z,101905.00
2023-05-18T17:59:45.070Z,101895.00
2023-05-18T18:02:14.197Z,101898.00
2023-05-18T18:04:42.219Z,101861.00
2023-05-18T18:07:10.150Z,101899.00
2023-05-18T18:09:38.034Z,101904.00
2023-05-18T18:12:06.478Z,101887.00
2023-05-18T18:14:35.924Z,101913.00
2023-05-18T18:17:03.808Z,101892.00
2023-05-18T18:19:32.042Z,101908.00
2023-05-18T18:22:00.035Z,101909.00
2023-05-18T18:24:28.021Z,101926.00
2023-05-18T18:26:56.123Z,101885.00
2023-05-18T18:29:29.927Z,101887.00
2023-05-18T18:32:00.604Z,101922.00
2023-05-18T18:34:28.858Z,101910.00
2023-05-18T18:36:59.785Z,101932.00
2023-05-18T18:39:28.414Z,101929.00
2023-05-18T18:41:56.304Z,101927.00
2023-05-18T18:44:24.308Z,101923.00
2023-05-18T18:46:54.385Z,101917.00
2023-05-18T18:53:04.311Z,101911.00
2023-05-18T18:55:34.550Z,101931.00
2023-05-18T18:58:03.293Z,101929.00
2023-05-18T19:00:32.325Z,101915.00
2023-05-18T19:03:00.375Z,101938.00
2023-05-18T19:05:31.026Z,101937.00
2023-05-18T19:07:59.165Z,101930.00
2023-05-18T19:10:27.460Z,101938.00
2023-05-18T19:12:57.366Z,101940.00
2023-05-18T19:15:25.225Z,101942.00
2023-05-18T19:17:54.412Z,101949.00
2023-05-18T19:20:23.748Z,101914.00
2023-05-18T19:22:54.323Z,101930.00
2023-05-18T19:25:28.052Z,101952.00
2023-05-18T19:27:56.790Z,101925.00
2023-05-18T19:30:25.090Z,101950.00
2023-05-18T19:32:54.245Z,101940.00
2023-05-18T19:35:23.671Z,101936.00
2023-05-18T19:37:53.543Z,101955.00
2023-05-18T19:40:23.317Z,101952.00
2023-05-18T19:42:51.382Z,101951.00
2023-05-18T19:45:21.642Z,101964.00
2023-05-18T19:47:49.702Z,101960.00
2023-05-18T19:50:17.803Z,101961.00
2023-05-18T19:52:45.910Z,101969.00
2023-05-18T19:55:15.788Z,101961.00
2023-05-18T19:57:44.218Z,101976.00
2023-05-18T20:00:16.538Z,101959.00
2023-05-18T20:02:44.723Z,101947.00
2023-05-18T20:05:13.335Z,101953.00
2023-05-18T20:07:42.004Z,101941.00
2023-05-18T20:10:10.266Z,101959.00
2023-05-18T20:12:41.315Z,101968.00
2023-05-18T20:15:10.224Z,101962.00
2023-05-18T20:17:38.478Z,101954.00
2023-05-18T20:20:08.162Z,101936.00
2023-05-18T20:22:36.706Z,101958.00
2023-05-18T20:25:05.725Z,101970.00
2023-05-18T20:27:34.568Z,101926.00
2023-05-18T20:30:07.630Z,101986.00
2023-05-18T20:32:36.850Z,101971.00
2023-05-18T20:35:05.632Z,101986.00
2023-05-18T20:37:34.749Z,101973.00
2023-05-18T20:40:09.278Z,101993.00
2023-05-18T20:42:40.949Z,102002.00
2023-05-18T20:45:12.481Z,101997.00
2023-05-18T20:47:41.833Z,101965.00
2023-05-18T20:50:11.202Z,101966.00
2023-05-18T20:52:39.368Z,101978.00
2023-05-18T20:55:09.471Z,101995.00
2023-05-18T20:57:40.176Z,101952.00
2023-05-18T21:00:12.176Z,101983.00
2023-05-18T21:02:41.631Z,102005.00
2023-05-18T21:05:10.289Z,101980.00
2023-05-18T21:07:40.282Z,101954.00
2023-05-18T21:10:08.903Z,101983.00
2023-05-18T21:12:36.904Z,101990.00
2023-05-18T21:15:05.686Z,101959.00
2023-05-18T21:17:35.358Z,101978.00
2023-05-18T21:20:03.727Z,101983.00
2023-05-18T21:22:31.973Z,101978.00
2023-05-18T21:25:00.008Z,101982.00
2023-05-18T21:27:27.998Z,101990.00
2023-05-18T21:29:58.961Z,101983.00
2023-05-18T21:32:27.192Z,101983.00
2023-05-18T21:34:57.283Z,101986.00
2023-05-18T21:37:26.038Z,101968.00
2023-05-18T21:39:54.374Z,101977.00
2023-05-18T21:42:22.925Z,102000.00
2023-05-18T21:44:51.213Z,101994.00
2023-05-18T21:47:19.634Z,101985.00
2023-05-18T21:49:48.233Z,101962.00
2023-05-18T21:52:19.115Z,102001.00
2023-05-18T21:54:47.502Z,101998.00
2023-05-18T21:57:15.792Z,101973.00
2023-05-18T21:59:44.163Z,101981.00
2023-05-18T22:02:12.330Z,101983.00
2023-05-18T22:04:40.723Z,101994.00
2023-05-18T22:07:10.098Z,101995.00
2023-05-18T22:09:39.866Z,101978.00
2023-05-18T22:12:08.273Z,101980.00
2023-05-18T22:14:36.511Z,101984.00
2023-05-18T22:17:05.140Z,101987.00
2023-05-18T22:19:33.321Z,101992.00
2023-05-18T22:22:01.780Z,101980.00
2023-05-18T22:24:30.082Z,101986.00
2023-05-18T22:26:59.714Z,102003.00
2023-05-18T22:29:27.942Z,101985.00
2023-05-18T22:31:56.228Z,101988.00
2023-05-18T22:34:24.349Z,101952.00
2023-05-18T22:36:52.509Z,101965.00
2023-05-18T22:39:20.565Z,101974.00
2023-05-18T22:41:48.628Z,101953.00
2023-05-18T22:44:18.260Z,101970.00
2023-05-18T22:46:47.392Z,101981.00
2023-05-18T22:49:15.660Z,101959.00
2023-05-18T22:51:46.956Z,101973.00
2023-05-18T22:54:15.177Z,101977.00
2023-05-18T22:56:43.328Z,101956.00
2023-05-18T22:59:12.130Z,101942.00
2023-05-18T23:01:42.027Z,101976.00
2023-05-18T23:04:10.133Z,101979.00
2023-05-18T23:06:38.157Z,101962.00
2023-05-18T23:09:06.158Z,101977.00
2023-05-18T23:11:35.054Z,101975.00
2023-05-18T23:14:03.203Z,101967.00
2023-05-18T23:16:31.658Z,101957.00
2023-05-18T23:19:01.797Z,101973.00
2023-05-18T23:21:31.073Z,101968.00
2023-05-18T23:23:59.937Z,101963.00
2023-05-18T23:26:28.132Z,101972.00
2023-05-18T23:28:59.069Z,101963.00
2023-05-18T23:31:28.666Z,101964.00
2023-05-18T23:33:57.204Z,101981.00
2023-05-18T23:36:30.537Z,101969.00
2023-05-18T23:39:00.092Z,101970.00
2023-05-18T23:41:29.547Z,101983.00
2023-05-18T23:43:58.661Z,101974.00
2023-05-18T23:46:27.223Z,101938.00
2023-05-18T23:48:57.897Z,101966.00
2023-05-18T23:51:32.105Z,101963.00
2023-05-18T23:54:07.629Z,101969.00
2023-05-18T23:56:36.354Z,101971.00
2023-05-18T23:59:04.895Z,101961.00
